sensor_id;sensor_type;location;lat;lon;timestamp;P1;durP1;ratioP1;P2;durP2;ratioP2
68144;SDS011;55400;51.824;-0.196;2023-02-15T00:02:21;43.80;;;23.60;;
68144;SDS011;55400;51.824;-0.196;2023-02-15T00:06:21;37.10;;;23.70;;
68144;SDS011;55400;51.824;-0.196;2023-02-15T00:10:21;34.90;;;21.80;;
68144;SDS011;55400;51.824;-0.196;2023-02-15T00:14:22;34.50;;;22.10;;
68144;SDS011;55400;51.824;-0.196;2023-02-15T00:18:21;34.40;;;21.60;;
68144;SDS011;55400;51.824;-0.196;2023-02-15T00:22:21;37.10;;;24.40;;
68144;SDS011;55400;51.824;-0.196;2023-02-15T00:26:21;34.50;;;21.90;;
68144;SDS011;55400;51.824;-0.196;2023-02-15T00:30:21;36.50;;;22.80;;
68144;SDS011;55400;51.824;-0.196;2023-02-15T00:34:23;31.50;;;21.00;;
68144;SDS011;55400;51.824;-0.196;2023-02-15T00:38:21;30.00;;;19.70;;
68144;SDS011;55400;51.824;-0.196;2023-02-15T00:46:21;32.60;;;20.20;;
68144;SDS011;55400;51.824;-0.196;2023-02-15T00:50:21;34.00;;;21.40;;
68144;SDS011;55400;51.824;-0.196;2023-02-15T00:54:21;31.70;;;20.30;;
68144;SDS011;55400;51.824;-0.196;2023-02-15T00:58:21;37.40;;;23.00;;
68144;SDS011;55400;51.824;-0.196;2023-02-15T01:02:21;38.40;;;22.60;;
68144;SDS011;55400;51.824;-0.196;2023-02-15T01:06:21;33.50;;;22.10;;
68144;SDS011;55400;51.824;-0.196;2023-02-15T01:10:21;41.20;;;22.90;;
68144;SDS011;55400;51.824;-0.196;2023-02-15T01:14:22;43.00;;;23.10;;
68144;SDS011;55400;51.824;-0.196;2023-02-15T01:18:22;46.10;;;24.70;;
68144;SDS011;55400;51.824;-0.196;2023-02-15T01:22:21;39.90;;;23.50;;
68144;SDS011;55400;51.824;-0.196;2023-02-15T01:26:21;43.80;;;23.20;;
68144;SDS011;55400;51.824;-0.196;2023-02-15T01:30:21;42.40;;;23.00;;
68144;SDS011;55400;51.824;-0.196;2023-02-15T01:34:21;55.80;;;27.60;;
68144;SDS011;55400;51.824;-0.196;2023-02-15T01:38:21;59.30;;;29.00;;
68144;SDS011;55400;51.824;-0.196;2023-02-15T01:42:22;64.00;;;30.00;;
68144;SDS011;55400;51.824;-0.196;2023-02-15T01:46:26;39.30;;;22.30;;
68144;SDS011;55400;51.824;-0.196;2023-02-15T01:50:25;42.80;;;24.00;;
68144;SDS011;55400;51.824;-0.196;2023-02-15T01:54:24;42.50;;;24.70;;
68144;SDS011;55400;51.824;-0.196;2023-02-15T01:58:22;39.30;;;22.30;;
68144;SDS011;55400;51.824;-0.196;2023-02-15T02:02:21;39.60;;;23.50;;
68144;SDS011;55400;51.824;-0.196;2023-02-15T02:06:22;48.60;;;24.60;;
68144;SDS011;55400;51.824;-0.196;2023-02-15T02:10:23;61.50;;;28.00;;
68144;SDS011;55400;51.824;-0.196;2023-02-15T02:14:23;47.40;;;25.50;;
68144;SDS011;55400;51.824;-0.196;2023-02-15T02:18:28;40.80;;;24.30;;
68144;SDS011;55400;51.824;-0.196;2023-02-15T02:22:36;53.10;;;26.30;;
68144;SDS011;55400;51.824;-0.196;2023-02-15T02:26:37;46.50;;;26.00;;
68144;SDS011;55400;51.824;-0.196;2023-02-15T02:30:37;44.10;;;23.70;;
68144;SDS011;55400;51.824;-0.196;2023-02-15T02:34:27;43.00;;;24.10;;
68144;SDS011;55400;51.824;-0.196;2023-02-15T02:38:27;45.10;;;23.90;;
68144;SDS011;55400;51.824;-0.196;2023-02-15T02:42:27;37.90;;;23.10;;
68144;SDS011;55400;51.824;-0.196;2023-02-15T02:46:26;44.70;;;23.10;;
68144;SDS011;55400;51.824;-0.196;2023-02-15T02:50:23;43.50;;;24.60;;
68144;SDS011;55400;51.824;-0.196;2023-02-15T02:58:25;41.00;;;25.10;;
68144;SDS011;55400;51.824;-0.196;2023-02-15T03:02:24;40.00;;;24.50;;
68144;SDS011;55400;51.824;-0.196;2023-02-15T03:06:25;40.80;;;24.10;;
68144;SDS011;55400;51.824;-0.196;2023-02-15T03:14:21;41.90;;;24.40;;
68144;SDS011;55400;51.824;-0.196;2023-02-15T03:18:25;42.80;;;24.30;;
68144;SDS011;55400;51.824;-0.196;2023-02-15T03:22:25;44.40;;;24.80;;
68144;SDS011;55400;51.824;-0.196;2023-02-15T03:26:23;43.90;;;25.30;;
68144;SDS011;55400;51.824;-0.196;2023-02-15T03:30:22;42.60;;;25.00;;
68144;SDS011;55400;51.824;-0.196;2023-02-15T03:34:22;46.00;;;24.90;;
68144;SDS011;55400;51.824;-0.196;2023-02-15T03:38:27;49.70;;;27.70;;
68144;SDS011;55400;51.824;-0.196;2023-02-15T03:42:25;45.80;;;25.50;;
68144;SDS011;55400;51.824;-0.196;2023-02-15T03:46:24;51.20;;;25.00;;
68144;SDS011;55400;51.824;-0.196;2023-02-15T03:50:26;47.80;;;25.50;;
68144;SDS011;55400;51.824;-0.196;2023-02-15T03:54:24;53.50;;;25.60;;
68144;SDS011;55400;51.824;-0.196;2023-02-15T03:58:21;48.00;;;26.70;;
68144;SDS011;55400;51.824;-0.196;2023-02-15T04:02:24;48.60;;;25.80;;
68144;SDS011;55400;51.824;-0.196;2023-02-15T04:06:21;42.80;;;25.00;;
68144;SDS011;55400;51.824;-0.196;2023-02-15T04:10:21;46.90;;;25.80;;
68144;SDS011;55400;51.824;-0.196;2023-02-15T04:14:21;46.40;;;25.30;;
68144;SDS011;55400;51.824;-0.196;2023-02-15T04:18:21;43.60;;;24.80;;
68144;SDS011;55400;51.824;-0.196;2023-02-15T04:22:21;47.00;;;26.10;;
68144;SDS011;55400;51.824;-0.196;2023-02-15T04:26:21;51.40;;;26.20;;
68144;SDS011;55400;51.824;-0.196;2023-02-15T04:30:24;49.20;;;26.30;;
68144;SDS011;55400;51.824;-0.196;2023-02-15T04:34:22;49.00;;;26.30;;
68144;SDS011;55400;51.824;-0.196;2023-02-15T04:38:22;47.40;;;25.20;;
68144;SDS011;55400;51.824;-0.196;2023-02-15T04:46:22;44.80;;;25.40;;
68144;SDS011;55400;51.824;-0.196;2023-02-15T04:50:22;49.90;;;26.00;;
68144;SDS011;55400;51.824;-0.196;2023-02-15T04:54:22;46.80;;;24.90;;
68144;SDS011;55400;51.824;-0.196;2023-02-15T04:58:22;55.10;;;27.00;;
68144;SDS011;55400;51.824;-0.196;2023-02-15T05:02:22;49.90;;;25.10;;
68144;SDS011;55400;51.824;-0.196;2023-02-15T05:06:22;50.30;;;26.30;;
68144;SDS011;55400;51.824;-0.196;2023-02-15T05:10:22;47.90;;;24.90;;
68144;SDS011;55400;51.824;-0.196;2023-02-15T05:14:22;47.40;;;25.20;;
68144;SDS011;55400;51.824;-0.196;2023-02-15T05:18:22;43.00;;;23.90;;
68144;SDS011;55400;51.824;-0.196;2023-02-15T05:22:22;45.60;;;24.80;;
68144;SDS011;55400;51.824;-0.196;2023-02-15T05:26:23;43.70;;;24.70;;
68144;SDS011;55400;51.824;-0.196;2023-02-15T05:34:22;50.60;;;25.10;;
68144;SDS011;55400;51.824;-0.196;2023-02-15T05:38:22;42.70;;;23.70;;
68144;SDS011;55400;51.824;-0.196;2023-02-15T05:42:22;38.70;;;22.30;;
68144;SDS011;55400;51.824;-0.196;2023-02-15T05:46:22;38.60;;;23.20;;
68144;SDS011;55400;51.824;-0.196;2023-02-15T05:54:22;35.70;;;22.30;;
68144;SDS011;55400;51.824;-0.196;2023-02-15T06:02:22;35.20;;;22.30;;
68144;SDS011;55400;51.824;-0.196;2023-02-15T06:06:22;34.90;;;21.50;;
68144;SDS011;55400;51.824;-0.196;2023-02-15T06:10:22;37.80;;;22.80;;
68144;SDS011;55400;51.824;-0.196;2023-02-15T06:14:22;42.30;;;24.30;;
68144;SDS011;55400;51.824;-0.196;2023-02-15T06:18:22;39.20;;;24.30;;
68144;SDS011;55400;51.824;-0.196;2023-02-15T06:22:22;37.30;;;22.30;;
68144;SDS011;55400;51.824;-0.196;2023-02-15T06:26:22;40.50;;;23.90;;
68144;SDS011;55400;51.824;-0.196;2023-02-15T06:30:22;43.70;;;24.20;;
68144;SDS011;55400;51.824;-0.196;2023-02-15T06:38:22;40.20;;;24.40;;
68144;SDS011;55400;51.824;-0.196;2023-02-15T06:42:22;39.80;;;24.10;;
68144;SDS011;55400;51.824;-0.196;2023-02-15T06:46:22;47.80;;;26.90;;
68144;SDS011;55400;51.824;-0.196;2023-02-15T06:50:22;44.00;;;26.90;;
68144;SDS011;55400;51.824;-0.196;2023-02-15T06:54:22;49.50;;;27.30;;
68144;SDS011;55400;51.824;-0.196;2023-02-15T06:58:22;41.20;;;25.10;;
68144;SDS011;55400;51.824;-0.196;2023-02-15T07:06:22;43.50;;;26.00;;
68144;SDS011;55400;51.824;-0.196;2023-02-15T07:10:22;42.60;;;25.00;;
68144;SDS011;55400;51.824;-0.196;2023-02-15T07:14:22;47.10;;;26.20;;
68144;SDS011;55400;51.824;-0.196;2023-02-15T07:18:22;46.90;;;25.50;;
68144;SDS011;55400;51.824;-0.196;2023-02-15T07:26:22;46.60;;;25.20;;
68144;SDS011;55400;51.824;-0.196;2023-02-15T07:30:22;45.80;;;26.40;;
68144;SDS011;55400;51.824;-0.196;2023-02-15T07:34:22;45.30;;;26.00;;
68144;SDS011;55400;51.824;-0.196;2023-02-15T07:38:22;43.80;;;24.40;;
68144;SDS011;55400;51.824;-0.196;2023-02-15T07:42:22;40.80;;;23.20;;
68144;SDS011;55400;51.824;-0.196;2023-02-15T07:46:22;41.20;;;24.30;;
68144;SDS011;55400;51.824;-0.196;2023-02-15T07:54:22;37.20;;;23.00;;
68144;SDS011;55400;51.824;-0.196;2023-02-15T07:58:22;40.00;;;24.10;;
68144;SDS011;55400;51.824;-0.196;2023-02-15T08:02:22;50.80;;;25.70;;
68144;SDS011;55400;51.824;-0.196;2023-02-15T08:06:26;49.20;;;27.20;;
68144;SDS011;55400;51.824;-0.196;2023-02-15T08:10:22;49.20;;;27.20;;
68144;SDS011;55400;51.824;-0.196;2023-02-15T08:14:22;42.30;;;26.20;;
68144;SDS011;55400;51.824;-0.196;2023-02-15T08:18:22;44.80;;;24.60;;
68144;SDS011;55400;51.824;-0.196;2023-02-15T08:22:22;48.30;;;25.40;;
68144;SDS011;55400;51.824;-0.196;2023-02-15T08:30:22;41.40;;;24.90;;
68144;SDS011;55400;51.824;-0.196;2023-02-15T08:34:22;46.80;;;25.80;;
68144;SDS011;55400;51.824;-0.196;2023-02-15T08:38:22;43.80;;;24.40;;
68144;SDS011;55400;51.824;-0.196;2023-02-15T08:42:22;49.30;;;26.80;;
68144;SDS011;55400;51.824;-0.196;2023-02-15T08:46:24;50.50;;;26.80;;
68144;SDS011;55400;51.824;-0.196;2023-02-15T08:50:22;45.20;;;25.30;;
68144;SDS011;55400;51.824;-0.196;2023-02-15T08:54:22;47.60;;;26.10;;
68144;SDS011;55400;51.824;-0.196;2023-02-15T08:58:22;45.80;;;26.70;;
68144;SDS011;55400;51.824;-0.196;2023-02-15T09:02:22;41.10;;;24.50;;
68144;SDS011;55400;51.824;-0.196;2023-02-15T09:06:22;44.30;;;26.50;;
68144;SDS011;55400;51.824;-0.196;2023-02-15T09:10:22;47.20;;;28.00;;
68144;SDS011;55400;51.824;-0.196;2023-02-15T09:14:22;61.90;;;34.50;;
68144;SDS011;55400;51.824;-0.196;2023-02-15T09:18:22;56.00;;;31.10;;
68144;SDS011;55400;51.824;-0.196;2023-02-15T09:22:22;55.90;;;29.30;;
68144;SDS011;55400;51.824;-0.196;2023-02-15T09:26:24;58.70;;;32.80;;
68144;SDS011;55400;51.824;-0.196;2023-02-15T09:30:22;67.50;;;36.50;;
68144;SDS011;55400;51.824;-0.196;2023-02-15T09:34:23;66.10;;;36.40;;
68144;SDS011;55400;51.824;-0.196;2023-02-15T09:38:22;69.90;;;36.80;;
68144;SDS011;55400;51.824;-0.196;2023-02-15T09:42:38;68.20;;;37.40;;
68144;SDS011;55400;51.824;-0.196;2023-02-15T09:46:37;69.50;;;37.70;;
68144;SDS011;55400;51.824;-0.196;2023-02-15T09:50:29;66.60;;;37.90;;
68144;SDS011;55400;51.824;-0.196;2023-02-15T09:54:30;69.00;;;38.10;;
68144;SDS011;55400;51.824;-0.196;2023-02-15T09:58:30;67.50;;;38.20;;
68144;SDS011;55400;51.824;-0.196;2023-02-15T10:02:31;74.80;;;37.60;;
68144;SDS011;55400;51.824;-0.196;2023-02-15T10:06:29;71.50;;;38.70;;
68144;SDS011;55400;51.824;-0.196;2023-02-15T10:10:28;67.30;;;38.90;;
68144;SDS011;55400;51.824;-0.196;2023-02-15T10:14:37;68.70;;;38.10;;
68144;SDS011;55400;51.824;-0.196;2023-02-15T10:18:30;67.80;;;38.30;;
68144;SDS011;55400;51.824;-0.196;2023-02-15T10:22:29;71.00;;;39.50;;
68144;SDS011;55400;51.824;-0.196;2023-02-15T10:26:28;74.80;;;40.60;;
68144;SDS011;55400;51.824;-0.196;2023-02-15T10:30:27;67.00;;;38.10;;
68144;SDS011;55400;51.824;-0.196;2023-02-15T10:34:32;65.20;;;36.90;;
68144;SDS011;55400;51.824;-0.196;2023-02-15T10:38:27;64.50;;;35.30;;
68144;SDS011;55400;51.824;-0.196;2023-02-15T10:42:30;70.60;;;34.80;;
68144;SDS011;55400;51.824;-0.196;2023-02-15T10:46:35;59.60;;;32.80;;
68144;SDS011;55400;51.824;-0.196;2023-02-15T10:50:29;56.60;;;31.10;;
68144;SDS011;55400;51.824;-0.196;2023-02-15T10:54:28;56.00;;;30.70;;
68144;SDS011;55400;51.824;-0.196;2023-02-15T10:58:31;50.20;;;28.90;;
68144;SDS011;55400;51.824;-0.196;2023-02-15T11:02:27;49.80;;;28.80;;
68144;SDS011;55400;51.824;-0.196;2023-02-15T11:06:25;48.90;;;27.10;;
68144;SDS011;55400;51.824;-0.196;2023-02-15T11:10:29;42.40;;;25.70;;
68144;SDS011;55400;51.824;-0.196;2023-02-15T11:14:34;46.60;;;24.40;;
68144;SDS011;55400;51.824;-0.196;2023-02-15T11:18:26;42.60;;;24.20;;
68144;SDS011;55400;51.824;-0.196;2023-02-15T11:22:23;43.90;;;24.30;;
68144;SDS011;55400;51.824;-0.196;2023-02-15T11:26:28;43.80;;;23.40;;
68144;SDS011;55400;51.824;-0.196;2023-02-15T11:30:25;38.80;;;22.80;;
68144;SDS011;55400;51.824;-0.196;2023-02-15T11:34:28;43.00;;;22.70;;
68144;SDS011;55400;51.824;-0.196;2023-02-15T11:38:26;37.20;;;21.50;;
68144;SDS011;55400;51.824;-0.196;2023-02-15T11:42:23;33.60;;;21.10;;
68144;SDS011;55400;51.824;-0.196;2023-02-15T11:46:23;39.20;;;21.70;;
68144;SDS011;55400;51.824;-0.196;2023-02-15T11:50:24;41.60;;;20.90;;
68144;SDS011;55400;51.824;-0.196;2023-02-15T11:54:27;35.70;;;20.10;;
68144;SDS011;55400;51.824;-0.196;2023-02-15T11:58:28;33.70;;;20.10;;
68144;SDS011;55400;51.824;-0.196;2023-02-15T12:02:23;35.50;;;20.50;;
68144;SDS011;55400;51.824;-0.196;2023-02-15T12:06:26;36.80;;;19.80;;
68144;SDS011;55400;51.824;-0.196;2023-02-15T12:10:25;37.60;;;20.60;;
68144;SDS011;55400;51.824;-0.196;2023-02-15T12:14:23;38.50;;;19.30;;
68144;SDS011;55400;51.824;-0.196;2023-02-15T12:18:34;35.90;;;19.90;;
68144;SDS011;55400;51.824;-0.196;2023-02-15T12:22:25;32.40;;;19.70;;
68144;SDS011;55400;51.824;-0.196;2023-02-15T12:26:25;35.30;;;19.10;;
68144;SDS011;55400;51.824;-0.196;2023-02-15T12:30:29;35.80;;;19.20;;
68144;SDS011;55400;51.824;-0.196;2023-02-15T12:34:26;38.10;;;19.00;;
68144;SDS011;55400;51.824;-0.196;2023-02-15T12:38:24;36.00;;;19.20;;
68144;SDS011;55400;51.824;-0.196;2023-02-15T12:42:24;37.00;;;18.70;;
68144;SDS011;55400;51.824;-0.196;2023-02-15T12:46:24;34.20;;;18.20;;
68144;SDS011;55400;51.824;-0.196;2023-02-15T12:50:24;28.10;;;16.90;;
68144;SDS011;55400;51.824;-0.196;2023-02-15T12:54:36;33.20;;;17.40;;
68144;SDS011;55400;51.824;-0.196;2023-02-15T12:58:25;33.10;;;16.40;;
68144;SDS011;55400;51.824;-0.196;2023-02-15T13:02:26;29.20;;;14.90;;
68144;SDS011;55400;51.824;-0.196;2023-02-15T13:06:23;32.50;;;15.90;;
68144;SDS011;55400;51.824;-0.196;2023-02-15T13:10:26;30.30;;;16.40;;
68144;SDS011;55400;51.824;-0.196;2023-02-15T13:14:29;28.20;;;14.60;;
68144;SDS011;55400;51.824;-0.196;2023-02-15T13:18:30;31.60;;;15.30;;
68144;SDS011;55400;51.824;-0.196;2023-02-15T13:22:27;32.40;;;13.50;;
68144;SDS011;55400;51.824;-0.196;2023-02-15T13:26:26;27.10;;;14.30;;
68144;SDS011;55400;51.824;-0.196;2023-02-15T13:30:26;28.40;;;14.00;;
68144;SDS011;55400;51.824;-0.196;2023-02-15T13:34:25;23.70;;;13.80;;
68144;SDS011;55400;51.824;-0.196;2023-02-15T13:38:40;24.70;;;13.30;;
68144;SDS011;55400;51.824;-0.196;2023-02-15T13:42:27;26.70;;;12.40;;
68144;SDS011;55400;51.824;-0.196;2023-02-15T13:46:37;26.70;;;11.90;;
68144;SDS011;55400;51.824;-0.196;2023-02-15T13:50:34;27.70;;;12.50;;
68144;SDS011;55400;51.824;-0.196;2023-02-15T13:54:32;22.80;;;11.50;;
68144;SDS011;55400;51.824;-0.196;2023-02-15T13:58:32;32.10;;;12.20;;
68144;SDS011;55400;51.824;-0.196;2023-02-15T14:02:35;27.30;;;11.80;;
68144;SDS011;55400;51.824;-0.196;2023-02-15T14:06:37;20.80;;;11.40;;
68144;SDS011;55400;51.824;-0.196;2023-02-15T14:10:34;25.40;;;10.70;;
68144;SDS011;55400;51.824;-0.196;2023-02-15T14:14:38;27.40;;;10.10;;
68144;SDS011;55400;51.824;-0.196;2023-02-15T14:18:29;21.30;;;9.70;;
68144;SDS011;55400;51.824;-0.196;2023-02-15T14:22:29;26.00;;;10.40;;
68144;SDS011;55400;51.824;-0.196;2023-02-15T14:26:31;16.80;;;9.50;;
68144;SDS011;55400;51.824;-0.196;2023-02-15T14:30:26;23.50;;;9.60;;
68144;SDS011;55400;51.824;-0.196;2023-02-15T14:34:27;19.80;;;9.50;;
68144;SDS011;55400;51.824;-0.196;2023-02-15T14:38:32;21.20;;;8.20;;
68144;SDS011;55400;51.824;-0.196;2023-02-15T14:42:28;19.70;;;7.70;;
68144;SDS011;55400;51.824;-0.196;2023-02-15T14:46:30;17.50;;;7.60;;
68144;SDS011;55400;51.824;-0.196;2023-02-15T14:50:37;21.90;;;7.60;;
68144;SDS011;55400;51.824;-0.196;2023-02-15T14:58:23;17.80;;;7.10;;
68144;SDS011;55400;51.824;-0.196;2023-02-15T15:02:25;17.80;;;7.50;;
68144;SDS011;55400;51.824;-0.196;2023-02-15T15:06:25;17.70;;;7.00;;
68144;SDS011;55400;51.824;-0.196;2023-02-15T15:10:45;17.80;;;7.60;;
68144;SDS011;55400;51.824;-0.196;2023-02-15T15:14:37;25.10;;;7.70;;
68144;SDS011;55400;51.824;-0.196;2023-02-15T15:22:24;20.70;;;7.50;;
68144;SDS011;55400;51.824;-0.196;2023-02-15T15:26:27;17.70;;;7.40;;
68144;SDS011;55400;51.824;-0.196;2023-02-15T15:34:41;20.40;;;7.40;;
68144;SDS011;55400;51.824;-0.196;2023-02-15T15:42:31;16.80;;;7.10;;
68144;SDS011;55400;51.824;-0.196;2023-02-15T15:50:24;22.10;;;7.70;;
68144;SDS011;55400;51.824;-0.196;2023-02-15T15:54:25;18.80;;;7.30;;
68144;SDS011;55400;51.824;-0.196;2023-02-15T15:58:24;17.90;;;7.20;;
68144;SDS011;55400;51.824;-0.196;2023-02-15T16:02:23;16.50;;;6.50;;
68144;SDS011;55400;51.824;-0.196;2023-02-15T16:06:29;18.20;;;6.50;;
68144;SDS011;55400;51.824;-0.196;2023-02-15T16:10:25;22.50;;;7.00;;
68144;SDS011;55400;51.824;-0.196;2023-02-15T16:14:26;16.00;;;6.60;;
68144;SDS011;55400;51.824;-0.196;2023-02-15T16:18:26;15.50;;;7.10;;
68144;SDS011;55400;51.824;-0.196;2023-02-15T16:22:26;16.60;;;6.90;;
68144;SDS011;55400;51.824;-0.196;2023-02-15T16:26:41;17.20;;;6.60;;
68144;SDS011;55400;51.824;-0.196;2023-02-15T16:30:27;17.20;;;6.40;;
68144;SDS011;55400;51.824;-0.196;2023-02-15T16:34:23;19.70;;;6.50;;
68144;SDS011;55400;51.824;-0.196;2023-02-15T16:42:24;18.10;;;5.90;;
68144;SDS011;55400;51.824;-0.196;2023-02-15T16:46:26;15.80;;;5.80;;
68144;SDS011;55400;51.824;-0.196;2023-02-15T16:50:27;17.10;;;6.10;;
68144;SDS011;55400;51.824;-0.196;2023-02-15T16:54:24;16.50;;;6.30;;
68144;SDS011;55400;51.824;-0.196;2023-02-15T16:58:28;12.70;;;6.10;;
68144;SDS011;55400;51.824;-0.196;2023-02-15T17:02:26;16.10;;;5.60;;
68144;SDS011;55400;51.824;-0.196;2023-02-15T17:06:25;17.90;;;6.00;;
68144;SDS011;55400;51.824;-0.196;2023-02-15T17:10:27;16.10;;;5.60;;
68144;SDS011;55400;51.824;-0.196;2023-02-15T17:14:27;21.30;;;5.60;;
68144;SDS011;55400;51.824;-0.196;2023-02-15T17:18:25;14.60;;;5.50;;
68144;SDS011;55400;51.824;-0.196;2023-02-15T17:22:25;14.80;;;5.70;;
68144;SDS011;55400;51.824;-0.196;2023-02-15T17:26:26;17.70;;;6.00;;
68144;SDS011;55400;51.824;-0.196;2023-02-15T17:30:27;18.90;;;5.60;;
68144;SDS011;55400;51.824;-0.196;2023-02-15T17:34:42;18.70;;;5.90;;
68144;SDS011;55400;51.824;-0.196;2023-02-15T17:38:24;17.10;;;5.40;;
68144;SDS011;55400;51.824;-0.196;2023-02-15T17:42:24;21.10;;;9.20;;
68144;SDS011;55400;51.824;-0.196;2023-02-15T17:46:24;14.60;;;5.00;;
68144;SDS011;55400;51.824;-0.196;2023-02-15T17:50:26;14.70;;;5.90;;
68144;SDS011;55400;51.824;-0.196;2023-02-15T17:54:24;11.20;;;4.80;;
68144;SDS011;55400;51.824;-0.196;2023-02-15T17:58:24;15.60;;;5.00;;
68144;SDS011;55400;51.824;-0.196;2023-02-15T18:02:24;16.60;;;5.50;;
68144;SDS011;55400;51.824;-0.196;2023-02-15T18:06:24;21.30;;;5.40;;
68144;SDS011;55400;51.824;-0.196;2023-02-15T18:10:24;13.00;;;4.50;;
68144;SDS011;55400;51.824;-0.196;2023-02-15T18:18:24;14.60;;;4.90;;
68144;SDS011;55400;51.824;-0.196;2023-02-15T18:22:25;15.20;;;5.90;;
68144;SDS011;55400;51.824;-0.196;2023-02-15T18:26:25;18.00;;;5.30;;
68144;SDS011;55400;51.824;-0.196;2023-02-15T18:30:24;17.30;;;5.70;;
68144;SDS011;55400;51.824;-0.196;2023-02-15T18:34:27;15.80;;;5.30;;
68144;SDS011;55400;51.824;-0.196;2023-02-15T18:38:24;18.30;;;5.60;;
68144;SDS011;55400;51.824;-0.196;2023-02-15T18:42:26;22.00;;;5.60;;
68144;SDS011;55400;51.824;-0.196;2023-02-15T18:46:24;17.70;;;5.30;;
68144;SDS011;55400;51.824;-0.196;2023-02-15T18:50:26;26.10;;;5.60;;
68144;SDS011;55400;51.824;-0.196;2023-02-15T18:54:24;16.00;;;6.00;;
68144;SDS011;55400;51.824;-0.196;2023-02-15T18:58:24;17.10;;;4.80;;
68144;SDS011;55400;51.824;-0.196;2023-02-15T19:02:24;22.50;;;5.70;;
68144;SDS011;55400;51.824;-0.196;2023-02-15T19:06:24;19.20;;;5.70;;
68144;SDS011;55400;51.824;-0.196;2023-02-15T19:10:26;19.50;;;5.90;;
68144;SDS011;55400;51.824;-0.196;2023-02-15T19:14:27;17.10;;;5.20;;
68144;SDS011;55400;51.824;-0.196;2023-02-15T19:18:24;15.90;;;5.90;;
68144;SDS011;55400;51.824;-0.196;2023-02-15T19:22:26;18.70;;;6.40;;
68144;SDS011;55400;51.824;-0.196;2023-02-15T19:26:24;18.80;;;5.70;;
68144;SDS011;55400;51.824;-0.196;2023-02-15T19:30:26;19.10;;;6.40;;
68144;SDS011;55400;51.824;-0.196;2023-02-15T19:34:24;19.40;;;6.00;;
68144;SDS011;55400;51.824;-0.196;2023-02-15T19:38:26;18.90;;;6.20;;
68144;SDS011;55400;51.824;-0.196;2023-02-15T19:42:24;17.10;;;6.70;;
68144;SDS011;55400;51.824;-0.196;2023-02-15T19:46:25;23.00;;;6.70;;
68144;SDS011;55400;51.824;-0.196;2023-02-15T19:50:27;21.10;;;6.90;;
68144;SDS011;55400;51.824;-0.196;2023-02-15T19:54:27;20.30;;;6.70;;
68144;SDS011;55400;51.824;-0.196;2023-02-15T19:58:24;20.40;;;7.20;;
68144;SDS011;55400;51.824;-0.196;2023-02-15T20:02:24;16.70;;;7.60;;
68144;SDS011;55400;51.824;-0.196;2023-02-15T20:06:24;22.10;;;7.30;;
68144;SDS011;55400;51.824;-0.196;2023-02-15T20:10:26;17.50;;;8.10;;
68144;SDS011;55400;51.824;-0.196;2023-02-15T20:14:24;21.20;;;8.80;;
68144;SDS011;55400;51.824;-0.196;2023-02-15T20:18:25;24.00;;;8.80;;
68144;SDS011;55400;51.824;-0.196;2023-02-15T20:22:25;20.00;;;8.60;;
68144;SDS011;55400;51.824;-0.196;2023-02-15T20:26:24;19.80;;;9.00;;
68144;SDS011;55400;51.824;-0.196;2023-02-15T20:30:27;26.70;;;9.90;;
68144;SDS011;55400;51.824;-0.196;2023-02-15T20:34:24;29.90;;;10.30;;
68144;SDS011;55400;51.824;-0.196;2023-02-15T20:38:26;25.60;;;12.10;;
68144;SDS011;55400;51.824;-0.196;2023-02-15T20:42:24;21.50;;;10.60;;
68144;SDS011;55400;51.824;-0.196;2023-02-15T20:46:25;26.20;;;12.00;;
68144;SDS011;55400;51.824;-0.196;2023-02-15T20:50:27;23.90;;;11.40;;
68144;SDS011;55400;51.824;-0.196;2023-02-15T20:54:26;26.90;;;11.10;;
68144;SDS011;55400;51.824;-0.196;2023-02-15T20:58:26;28.20;;;11.60;;
68144;SDS011;55400;51.824;-0.196;2023-02-15T21:02:24;26.40;;;12.20;;
68144;SDS011;55400;51.824;-0.196;2023-02-15T21:06:24;26.60;;;12.20;;
68144;SDS011;55400;51.824;-0.196;2023-02-15T21:10:26;25.20;;;11.90;;
68144;SDS011;55400;51.824;-0.196;2023-02-15T21:14:25;23.50;;;12.70;;
68144;SDS011;55400;51.824;-0.196;2023-02-15T21:18:26;28.80;;;13.00;;
68144;SDS011;55400;51.824;-0.196;2023-02-15T21:22:25;27.70;;;13.20;;
68144;SDS011;55400;51.824;-0.196;2023-02-15T21:30:25;28.80;;;13.00;;
68144;SDS011;55400;51.824;-0.196;2023-02-15T21:34:24;28.80;;;13.00;;
68144;SDS011;55400;51.824;-0.196;2023-02-15T21:38:28;26.30;;;13.10;;
68144;SDS011;55400;51.824;-0.196;2023-02-15T21:42:26;26.30;;;13.10;;
68144;SDS011;55400;51.824;-0.196;2023-02-15T21:46:25;25.00;;;12.80;;
68144;SDS011;55400;51.824;-0.196;2023-02-15T22:02:27;16.70;;;9.10;;
68144;SDS011;55400;51.824;-0.196;2023-02-15T22:10:26;23.30;;;8.80;;
68144;SDS011;55400;51.824;-0.196;2023-02-15T22:14:34;19.50;;;8.50;;
68144;SDS011;55400;51.824;-0.196;2023-02-15T22:18:26;19.50;;;8.50;;
68144;SDS011;55400;51.824;-0.196;2023-02-15T22:22:25;17.00;;;8.10;;
68144;SDS011;55400;51.824;-0.196;2023-02-15T22:26:26;13.80;;;6.80;;
68144;SDS011;55400;51.824;-0.196;2023-02-15T22:30:27;13.50;;;6.60;;
68144;SDS011;55400;51.824;-0.196;2023-02-15T22:34:26;13.50;;;6.60;;
68144;SDS011;55400;51.824;-0.196;2023-02-15T22:38:25;12.90;;;6.20;;
68144;SDS011;55400;51.824;-0.196;2023-02-15T22:42:26;10.30;;;5.90;;
68144;SDS011;55400;51.824;-0.196;2023-02-15T22:46:25;17.30;;;7.00;;
68144;SDS011;55400;51.824;-0.196;2023-02-15T22:50:26;13.70;;;6.80;;
68144;SDS011;55400;51.824;-0.196;2023-02-15T22:54:24;16.70;;;7.50;;
68144;SDS011;55400;51.824;-0.196;2023-02-15T22:58:27;8.80;;;5.40;;
68144;SDS011;55400;51.824;-0.196;2023-02-15T23:02:25;8.80;;;5.40;;
68144;SDS011;55400;51.824;-0.196;2023-02-15T23:06:24;7.40;;;4.30;;
68144;SDS011;55400;51.824;-0.196;2023-02-15T23:10:25;9.40;;;4.30;;
68144;SDS011;55400;51.824;-0.196;2023-02-15T23:14:27;6.30;;;4.20;;
68144;SDS011;55400;51.824;-0.196;2023-02-15T23:18:27;5.40;;;4.10;;
68144;SDS011;55400;51.824;-0.196;2023-02-15T23:22:24;7.60;;;4.50;;
68144;SDS011;55400;51.824;-0.196;2023-02-15T23:26:27;8.60;;;4.90;;
68144;SDS011;55400;51.824;-0.196;2023-02-15T23:30:25;6.30;;;5.10;;
68144;SDS011;55400;51.824;-0.196;2023-02-15T23:34:27;5.90;;;5.00;;
68144;SDS011;55400;51.824;-0.196;2023-02-15T23:38:27;7.10;;;5.00;;
68144;SDS011;55400;51.824;-0.196;2023-02-15T23:42:27;7.80;;;5.20;;
68144;SDS011;55400;51.824;-0.196;2023-02-15T23:46:28;6.80;;;5.10;;
68144;SDS011;55400;51.824;-0.196;2023-02-15T23:50:27;8.60;;;5.40;;
68144;SDS011;55400;51.824;-0.196;2023-02-15T23:54:25;8.50;;;5.60;;
68144;SDS011;55400;51.824;-0.196;2023-02-15T23:58:32;9.90;;;6.10;;
